createdAt,value
2022-11-28T00:02:13.207Z,85.20
2022-11-28T00:05:15.525Z,90.70
2022-11-28T00:08:18.074Z,79.70
2022-11-28T00:11:20.665Z,86.97
2022-11-28T00:14:22.859Z,84.10
2022-11-28T00:17:25.108Z,76.90
2022-11-28T00:20:27.481Z,68.90
2022-11-28T00:23:30.420Z,79.93
2022-11-28T00:26:40.534Z,75.90
2022-11-28T00:29:42.763Z,65.10
2022-11-28T00:32:45.003Z,67.68
2022-11-28T00:35:47.493Z,66.32
2022-11-28T00:38:50.098Z,57.55
2022-11-28T00:41:52.627Z,55.72
2022-11-28T00:44:54.861Z,51.80
2022-11-28T00:47:57.071Z,61.25
2022-11-28T00:51:12.986Z,54.10
2022-11-28T00:54:15.300Z,51.15
2022-11-28T00:57:17.534Z,46.10
2022-11-28T01:00:20.030Z,47.33
2022-11-28T01:03:22.604Z,54.53
2022-11-28T01:06:32.245Z,49.60
2022-11-28T01:09:34.476Z,58.63
2022-11-28T01:12:36.929Z,53.40
2022-11-28T01:15:40.877Z,50.80
2022-11-28T01:18:43.043Z,48.45
2022-11-28T01:21:45.252Z,47.38
2022-11-28T01:24:47.477Z,49.78
2022-11-28T01:27:49.677Z,46.42
2022-11-28T01:30:51.844Z,52.03
2022-11-28T01:33:54.419Z,45.90
2022-11-28T01:36:56.972Z,50.90
2022-11-28T01:39:59.217Z,44.65
2022-11-28T01:43:01.411Z,42.10
2022-11-28T01:46:04.539Z,45.93
2022-11-28T01:49:30.440Z,39.88
2022-11-28T01:52:33.859Z,42.08
2022-11-28T01:55:40.015Z,47.78
2022-11-28T01:58:45.675Z,40.45
2022-11-28T02:01:48.013Z,35.30
2022-11-28T02:04:50.942Z,33.40
2022-11-28T02:07:53.496Z,31.10
2022-11-28T02:10:55.793Z,34.67
2022-11-28T02:14:01.090Z,28.00
2022-11-28T02:17:06.744Z,28.77
2022-11-28T02:20:12.097Z,29.33
2022-11-28T02:23:23.507Z,34.58
2022-11-28T02:26:44.652Z,34.72
2022-11-28T02:30:02.003Z,31.90
2022-11-28T02:33:13.694Z,25.93
2022-11-28T02:36:15.861Z,27.58
2022-11-28T02:39:24.365Z,26.50
2022-11-28T02:42:31.586Z,32.10
2022-11-28T02:45:53.988Z,29.90
2022-11-28T02:49:01.849Z,30.97
2022-11-28T02:52:08.174Z,37.25
2022-11-28T02:55:10.980Z,33.05
2022-11-28T02:58:13.548Z,35.85
2022-11-28T03:01:19.504Z,27.67
2022-11-28T03:04:27.968Z,27.07
2022-11-28T03:07:33.277Z,27.35
2022-11-28T03:10:35.549Z,31.42
2022-11-28T03:13:46.804Z,31.45
2022-11-28T03:16:58.685Z,30.48
2022-11-28T03:20:16.279Z,31.53
2022-11-28T03:23:27.128Z,32.50
2022-11-28T03:26:53.315Z,31.55
2022-11-28T03:29:57.210Z,31.38
2022-11-28T03:33:01.226Z,26.53
2022-11-28T03:36:12.800Z,32.87
2022-11-28T03:39:17.606Z,36.20
2022-11-28T03:42:24.424Z,32.30
2022-11-28T03:45:28.800Z,33.65
2022-11-28T03:48:32.852Z,30.65
2022-11-28T03:52:01.560Z,34.00
2022-11-28T03:55:06.182Z,33.58
2022-11-28T03:58:08.411Z,32.88
2022-11-28T04:01:33.948Z,32.13
2022-11-28T04:04:45.656Z,33.20
2022-11-28T04:07:56.912Z,40.77
2022-11-28T04:11:06.763Z,37.90
2022-11-28T04:14:20.968Z,48.08
2022-11-28T04:17:30.433Z,45.80
2022-11-28T04:20:35.990Z,56.33
2022-11-28T04:23:39.109Z,49.83
2022-11-28T04:26:42.544Z,58.42
2022-11-28T04:29:46.847Z,58.28
2022-11-28T04:32:55.797Z,68.47
2022-11-28T04:35:58.805Z,56.77
2022-11-28T04:39:02.159Z,49.63
2022-11-28T04:42:08.336Z,51.22
2022-11-28T04:45:13.688Z,51.25
2022-11-28T04:48:16.309Z,56.42
2022-11-28T04:51:27.754Z,64.17
2022-11-28T04:54:38.321Z,68.50
2022-11-28T04:57:54.201Z,76.05
2022-11-28T05:01:00.128Z,67.10
2022-11-28T05:04:02.965Z,69.95
2022-11-28T05:07:06.172Z,68.13
2022-11-28T05:10:09.985Z,68.53
2022-11-28T05:13:12.616Z,73.65
2022-11-28T05:16:15.480Z,59.30
2022-11-28T05:19:17.660Z,57.25
2022-11-28T05:22:19.894Z,62.57
2022-11-28T05:25:22.234Z,51.00
2022-11-28T05:28:25.090Z,62.30
2022-11-28T05:31:27.765Z,48.58
2022-11-28T05:34:31.240Z,54.65
2022-11-28T05:37:33.939Z,52.37
2022-11-28T05:40:43.250Z,53.03
2022-11-28T05:43:45.541Z,59.72
2022-11-28T05:46:47.873Z,58.38
2022-11-28T05:49:50.259Z,59.35
2022-11-28T05:52:52.544Z,51.03
2022-11-28T05:55:54.816Z,63.67
2022-11-28T05:58:57.156Z,61.22
2022-11-28T06:02:05.675Z,57.45
2022-11-28T06:05:34.663Z,57.45
2022-11-28T06:08:30.712Z,54.60
2022-11-28T06:11:33.827Z,54.03
2022-11-28T06:14:36.337Z,68.45
2022-11-28T06:17:38.934Z,53.92
2022-11-28T06:20:41.198Z,55.92
2022-11-28T06:23:43.608Z,55.70
2022-11-28T06:26:45.960Z,61.80
2022-11-28T06:29:48.198Z,58.78
2022-11-28T06:32:51.046Z,59.85
2022-11-28T06:35:59.466Z,69.47
2022-11-28T06:39:02.508Z,70.87
2022-11-28T06:42:05.429Z,65.10
2022-11-28T06:45:09.355Z,62.42
2022-11-28T06:48:13.815Z,58.17
2022-11-28T06:51:17.889Z,57.50
2022-11-28T06:54:20.345Z,60.50
2022-11-28T06:57:28.358Z,54.20
2022-11-28T07:00:40.949Z,57.38
2022-11-28T07:03:47.968Z,53.25
2022-11-28T07:06:56.321Z,54.83
2022-11-28T07:10:09.582Z,47.77
2022-11-28T07:13:14.442Z,51.00
2022-11-28T07:16:18.400Z,56.08
2022-11-28T07:19:23.184Z,58.25
2022-11-28T07:22:29.859Z,55.55
2022-11-28T07:25:32.396Z,56.10
2022-11-28T07:28:37.987Z,56.13
2022-11-28T07:31:40.420Z,50.35
2022-11-28T07:34:45.553Z,51.35
2022-11-28T07:37:53.089Z,51.22
2022-11-28T07:40:56.429Z,45.15
2022-11-28T07:44:01.253Z,45.40
2022-11-28T07:47:05.033Z,52.58
2022-11-28T07:53:33.606Z,44.35
2022-11-28T07:57:11.501Z,49.03
2022-11-28T08:00:11.563Z,35.87
2022-11-28T08:03:40.844Z,30.30
2022-11-28T08:06:45.261Z,31.45
2022-11-28T08:09:51.514Z,29.90
2022-11-28T08:12:54.443Z,33.97
2022-11-28T08:15:57.538Z,32.10
2022-11-28T08:19:03.562Z,29.70
2022-11-28T08:22:12.685Z,31.17
2022-11-28T08:25:15.479Z,30.48
2022-11-28T08:28:18.381Z,35.30
2022-11-28T08:31:25.208Z,36.00
2022-11-28T08:34:31.024Z,33.83
2022-11-28T08:37:33.834Z,32.67
2022-11-28T08:40:39.765Z,34.17
2022-11-28T08:43:57.681Z,39.08
2022-11-28T08:47:20.508Z,40.70
2022-11-28T08:50:29.727Z,39.55
2022-11-28T08:53:35.740Z,32.67
2022-11-28T08:57:03.782Z,38.88
2022-11-28T09:00:24.019Z,30.88
2022-11-28T09:03:27.630Z,36.87
2022-11-28T09:06:34.491Z,32.92
2022-11-28T09:09:37.409Z,32.63
2022-11-28T09:12:42.392Z,31.45
2022-11-28T09:15:48.088Z,32.00
2022-11-28T09:19:00.096Z,35.23
2022-11-28T09:22:02.712Z,32.55
2022-11-28T09:25:05.570Z,31.90
2022-11-28T09:28:18.827Z,29.20
2022-11-28T09:31:24.815Z,28.75
2022-11-28T09:34:30.287Z,27.43
2022-11-28T09:37:41.156Z,28.75
2022-11-28T09:40:45.019Z,33.33
2022-11-28T09:44:32.353Z,33.55
2022-11-28T09:48:06.124Z,28.60
2022-11-28T09:52:00.650Z,28.50
2022-11-28T09:55:51.329Z,34.33
2022-11-28T09:59:10.684Z,28.25
2022-11-28T10:02:23.705Z,27.17
2022-11-28T10:05:37.512Z,33.00
2022-11-28T10:09:00.209Z,29.43
2022-11-28T10:12:22.918Z,28.23
2022-11-28T10:15:34.270Z,27.98
2022-11-28T10:18:54.260Z,31.27
2022-11-28T10:21:59.573Z,33.73
2022-11-28T10:25:09.470Z,34.77
2022-11-28T10:28:18.208Z,31.92
2022-11-28T10:31:22.078Z,23.85
2022-11-28T10:34:39.477Z,27.38
2022-11-28T10:37:43.685Z,29.45
2022-11-28T10:41:06.687Z,29.07
2022-11-28T10:44:30.120Z,33.78
2022-11-28T10:47:54.549Z,29.02
2022-11-28T10:51:22.102Z,35.47
2022-11-28T10:54:31.218Z,29.95
2022-11-28T10:58:14.263Z,32.80
2022-11-28T11:01:22.052Z,35.50
2022-11-28T11:04:27.986Z,36.03
2022-11-28T11:07:32.139Z,32.33
2022-11-28T11:11:06.261Z,35.53
2022-11-28T11:14:11.648Z,32.50
2022-11-28T11:17:52.475Z,29.88
2022-11-28T11:21:10.716Z,26.52
2022-11-28T11:24:18.363Z,27.73
2022-11-28T11:27:22.218Z,29.30
2022-11-28T11:30:34.260Z,26.70
2022-11-28T11:33:37.950Z,33.35
2022-11-28T11:36:46.924Z,28.23
2022-11-28T11:39:53.329Z,31.27
2022-11-28T11:43:02.076Z,30.33
2022-11-28T11:46:23.821Z,34.80
2022-11-28T11:49:55.027Z,36.10
2022-11-28T11:53:14.741Z,28.80
2022-11-28T11:56:34.731Z,32.17
2022-11-28T11:59:44.955Z,34.17
2022-11-28T12:03:00.442Z,28.93
2022-11-28T12:06:14.959Z,27.88
2022-11-28T12:09:20.822Z,28.35
2022-11-28T12:12:27.698Z,24.83
2022-11-28T12:16:18.787Z,24.90
2022-11-28T12:19:35.748Z,27.47
2022-11-28T12:22:59.693Z,22.85
2022-11-28T12:26:08.693Z,25.30
2022-11-28T12:29:26.172Z,27.55
2022-11-28T12:32:33.499Z,25.95
2022-11-28T12:35:48.816Z,23.90
2022-11-28T12:39:25.803Z,26.13
2022-11-28T12:42:37.073Z,27.20
2022-11-28T12:45:42.959Z,30.13
2022-11-28T12:53:25.471Z,33.90
2022-11-28T12:57:06.402Z,26.95
2022-11-28T13:00:29.832Z,29.45
2022-11-28T13:03:46.938Z,33.65
2022-11-28T13:07:13.993Z,34.70
2022-11-28T13:10:23.144Z,33.43
2022-11-28T13:13:47.872Z,36.13
2022-11-28T13:16:51.613Z,34.45
2022-11-28T13:20:07.997Z,35.55
2022-11-28T13:23:26.388Z,36.97
2022-11-28T13:26:34.259Z,34.23
2022-11-28T13:29:42.706Z,36.10
2022-11-28T13:32:48.949Z,33.42
2022-11-28T13:35:54.574Z,43.53
2022-11-28T13:39:17.631Z,37.22
2022-11-28T13:43:08.461Z,36.63
2022-11-28T13:46:10.257Z,35.80
2022-11-28T13:49:27.886Z,37.60
2022-11-28T13:52:36.039Z,35.20
2022-11-28T13:55:48.097Z,38.13
2022-11-28T13:59:16.483Z,32.77
2022-11-28T14:02:41.852Z,38.38
2022-11-28T14:05:45.865Z,43.00
2022-11-28T14:08:50.072Z,41.65
2022-11-28T14:12:08.682Z,42.10
2022-11-28T14:15:15.249Z,42.93
2022-11-28T14:22:21.525Z,38.28
2022-11-28T14:25:28.922Z,38.60
2022-11-28T14:28:38.334Z,43.27
2022-11-28T14:32:06.514Z,34.20
2022-11-28T14:35:17.426Z,41.08
2022-11-28T14:38:32.508Z,37.20
2022-11-28T14:42:11.363Z,43.53
2022-11-28T14:45:35.338Z,38.20
2022-11-28T14:48:42.169Z,40.80
2022-11-28T14:51:47.698Z,38.10
2022-11-28T14:54:53.208Z,45.83
2022-11-28T14:58:00.161Z,42.83
2022-11-28T15:01:05.574Z,41.33
2022-11-28T15:04:16.683Z,43.57
2022-11-28T15:07:22.017Z,42.05
2022-11-28T15:10:37.585Z,45.10
2022-11-28T15:13:56.395Z,43.42
2022-11-28T15:17:02.703Z,41.43
2022-11-28T15:20:08.693Z,47.47
2022-11-28T15:23:29.093Z,43.53
2022-11-28T15:26:31.588Z,38.83
2022-11-28T15:29:34.664Z,42.63
2022-11-28T15:32:38.073Z,43.63
2022-11-28T15:35:55.735Z,45.30
2022-11-28T15:38:58.129Z,47.40
2022-11-28T15:42:01.082Z,47.42
2022-11-28T15:45:12.329Z,51.20
2022-11-28T15:48:38.778Z,47.77
2022-11-28T15:51:51.789Z,50.17
2022-11-28T15:54:54.285Z,46.55
2022-11-28T15:58:15.781Z,43.75
2022-11-28T16:01:19.957Z,58.65
2022-11-28T16:04:22.684Z,50.47
2022-11-28T16:07:26.125Z,48.63
2022-11-28T16:10:37.115Z,55.60
2022-11-28T16:13:39.995Z,48.58
2022-11-28T16:16:42.337Z,52.40
2022-11-28T16:19:44.997Z,48.37
2022-11-28T16:22:47.422Z,52.33
2022-11-28T16:26:07.160Z,55.33
2022-11-28T16:29:09.621Z,59.40
2022-11-28T16:32:35.658Z,53.60
2022-11-28T16:35:41.653Z,54.10
2022-11-28T16:38:44.507Z,58.53
2022-11-28T16:41:50.270Z,57.83
2022-11-28T16:44:52.952Z,54.17
2022-11-28T16:48:22.205Z,58.25
2022-11-28T16:51:33.092Z,58.87
2022-11-28T16:54:35.370Z,55.73
2022-11-28T16:57:47.966Z,54.47
2022-11-28T17:01:02.953Z,58.10
2022-11-28T17:04:05.413Z,66.15
2022-11-28T17:07:13.999Z,54.63
2022-11-28T17:10:16.380Z,53.33
2022-11-28T17:13:19.503Z,64.43
2022-11-28T17:16:23.337Z,61.22
2022-11-28T17:19:25.783Z,60.97
2022-11-28T17:22:40.721Z,53.30
2022-11-28T17:25:44.168Z,55.03
2022-11-28T17:28:47.161Z,67.97
2022-11-28T17:31:50.402Z,59.08
2022-11-28T17:34:52.934Z,59.55
2022-11-28T17:37:55.212Z,55.63
2022-11-28T17:40:57.831Z,56.13
2022-11-28T17:44:00.523Z,61.38
2022-11-28T17:47:03.613Z,67.55
2022-11-28T17:50:06.518Z,57.80
2022-11-28T17:53:10.480Z,60.07
2022-11-28T17:56:12.957Z,65.57
2022-11-28T17:59:16.348Z,58.58
2022-11-28T18:02:18.888Z,66.82
2022-11-28T18:05:21.603Z,56.92
2022-11-28T18:08:24.445Z,65.47
2022-11-28T18:11:28.311Z,66.43
2022-11-28T18:14:35.191Z,69.43
2022-11-28T18:17:41.025Z,71.97
2022-11-28T18:20:43.468Z,65.40
2022-11-28T18:23:47.912Z,63.77
2022-11-28T18:26:50.356Z,65.03
2022-11-28T18:29:53.244Z,68.93
2022-11-28T18:32:55.819Z,68.72
2022-11-28T18:36:07.702Z,70.88
2022-11-28T18:39:12.635Z,61.77
2022-11-28T18:42:15.072Z,66.83
2022-11-28T18:45:17.948Z,66.50
2022-11-28T18:48:20.179Z,61.38
2022-11-28T18:51:30.172Z,71.18
2022-11-28T18:54:33.267Z,67.37
2022-11-28T18:57:36.419Z,73.80
2022-11-28T19:00:39.699Z,65.10
2022-11-28T19:03:43.817Z,64.90
2022-11-28T19:06:48.643Z,60.38
2022-11-28T19:09:51.780Z,67.40
2022-11-28T19:12:55.002Z,64.07
2022-11-28T19:15:57.785Z,63.65
2022-11-28T19:19:01.054Z,63.13
2022-11-28T19:22:04.389Z,60.80
2022-11-28T19:25:07.972Z,62.50
2022-11-28T19:28:10.399Z,61.23
2022-11-28T19:31:15.336Z,57.70
2022-11-28T19:34:19.243Z,63.65
2022-11-28T19:37:21.577Z,66.47
2022-11-28T19:40:24.242Z,64.43
2022-11-28T19:43:26.620Z,54.57
2022-11-28T19:46:35.011Z,58.97
2022-11-28T19:49:38.509Z,69.03
2022-11-28T19:52:41.175Z,61.17
2022-11-28T19:55:44.582Z,55.10
2022-11-28T19:58:47.461Z,59.63
2022-11-28T20:01:50.249Z,57.70
2022-11-28T20:04:52.823Z,54.72
2022-11-28T20:07:58.430Z,52.17
2022-11-28T20:11:23.725Z,60.20
2022-11-28T20:14:27.735Z,62.83
2022-11-28T20:17:30.485Z,51.78
2022-11-28T20:20:34.208Z,53.50
2022-11-28T20:23:43.977Z,59.67
2022-11-28T20:26:46.916Z,58.53
2022-11-28T20:29:49.638Z,52.77
2022-11-28T20:32:53.297Z,54.40
2022-11-28T20:36:09.710Z,50.92
2022-11-28T20:39:12.909Z,56.25
2022-11-28T20:42:15.362Z,57.77
2022-11-28T20:45:17.574Z,58.33
2022-11-28T20:48:20.018Z,69.65
2022-11-28T20:51:24.976Z,51.30
2022-11-28T20:54:27.525Z,54.00
2022-11-28T20:57:30.167Z,64.40
2022-11-28T21:00:32.479Z,50.47
2022-11-28T21:03:35.063Z,53.63
2022-11-28T21:06:38.281Z,53.97
2022-11-28T21:09:40.959Z,61.08
2022-11-28T21:12:43.509Z,59.83
2022-11-28T21:15:45.997Z,53.80
2022-11-28T21:18:49.681Z,60.88
2022-11-28T21:21:51.989Z,66.13
2022-11-28T21:24:54.443Z,59.50
2022-11-28T21:27:56.698Z,67.67
2022-11-28T21:30:59.030Z,59.53
2022-11-28T21:34:01.552Z,74.00
2022-11-28T21:37:03.820Z,63.70
2022-11-28T21:40:06.492Z,64.78
2022-11-28T21:43:08.809Z,70.97
2022-11-28T21:46:11.407Z,73.03
2022-11-28T21:49:13.744Z,85.07
2022-11-28T21:52:17.012Z,64.35
2022-11-28T21:55:19.816Z,75.93
2022-11-28T21:58:26.632Z,87.67
2022-11-28T22:01:30.047Z,106.47
2022-11-28T22:04:32.735Z,89.93
2022-11-28T22:07:36.293Z,83.53
2022-11-28T22:10:38.831Z,86.00
2022-11-28T22:13:42.631Z,88.60
2022-11-28T22:16:44.875Z,99.43
2022-11-28T22:19:48.939Z,78.20
2022-11-28T22:22:51.387Z,79.18
2022-11-28T22:25:53.648Z,76.40
2022-11-28T22:28:56.273Z,65.13
2022-11-28T22:31:59.163Z,81.33
2022-11-28T22:35:02.718Z,68.18
2022-11-28T22:38:04.953Z,75.00
2022-11-28T22:41:08.308Z,59.63
2022-11-28T22:44:10.930Z,71.67
2022-11-28T22:47:13.521Z,70.27
2022-11-28T22:50:15.836Z,71.82
2022-11-28T22:53:18.028Z,59.35
2022-11-28T22:56:20.687Z,65.53
2022-11-28T22:59:23.038Z,60.83
2022-11-28T23:02:25.515Z,66.47
2022-11-28T23:05:28.461Z,54.10
2022-11-28T23:08:30.929Z,53.38
2022-11-28T23:11:34.709Z,55.28
2022-11-28T23:14:36.957Z,58.53
2022-11-28T23:17:39.166Z,46.77
2022-11-28T23:20:41.530Z,60.80
2022-11-28T23:23:46.740Z,61.80
2022-11-28T23:26:50.305Z,57.42
2022-11-28T23:29:52.617Z,53.30
2022-11-28T23:32:55.406Z,71.83
2022-11-28T23:35:58.123Z,48.78
2022-11-28T23:39:04.729Z,55.38
2022-11-28T23:42:06.921Z,70.07
2022-11-28T23:45:09.499Z,64.97
2022-11-28T23:48:11.765Z,71.23
2022-11-28T23:51:15.357Z,69.85
2022-11-28T23:54:17.838Z,70.70
2022-11-28T23:57:20.074Z,71.85
